Time;durP1;ratioP1;P1;durP2;ratioP2;P2;SDS_P1;SDS_P2;PMS_P1;PMS_P2;Temp;Humidity;BMP_temperature;BMP_pressure;BME280_temperature;BME280_humidity;BME280_pressure;Samples;Min_cycle;Max_cycle;Signal;HPM_P1;HPM_P2
2021/07/30 00:02:21;;;;;;;11.95;2.90;;;19.00;76.80;;;;;;5054048;28;20025;-72
2021/07/30 00:04:46;;;;;;;10.43;2.42;;;19.00;77.20;;;;;;5053795;28;20037;-71
2021/07/30 00:07:12;;;;;;;12.70;2.60;;;19.00;77.00;;;;;;5053780;28;20120;-71
2021/07/30 00:09:38;;;;;;;9.43;2.60;;;18.90;77.30;;;;;;5053723;28;20061;-72
2021/07/30 00:12:05;;;;;;;6.30;2.08;;;18.90;78.70;;;;;;5054016;28;20025;-72
2021/07/30 00:14:31;;;;;;;10.98;2.28;;;18.80;78.40;;;;;;5053491;28;20029;-71
2021/07/30 00:16:57;;;;;;;10.20;2.75;;;18.80;78.50;;;;;;5053460;28;20037;-72
2021/07/30 00:19:22;;;;;;;6.40;2.33;;;18.80;78.70;;;;;;5052292;28;20045;-72
2021/07/30 00:21:48;;;;;;;8.40;2.55;;;18.70;78.40;;;;;;5053229;28;20044;-72
2021/07/30 00:24:14;;;;;;;7.95;2.15;;;18.70;78.40;;;;;;5053354;28;20025;-72
2021/07/30 00:26:39;;;;;;;6.72;2.10;;;18.70;78.50;;;;;;5053905;28;20028;-72
2021/07/30 00:29:05;;;;;;;8.18;2.42;;;18.60;78.60;;;;;;5053415;28;20029;-72
2021/07/30 00:31:31;;;;;;;11.52;2.97;;;18.60;78.50;;;;;;5053365;28;20029;-72
2021/07/30 00:33:57;;;;;;;8.05;2.00;;;18.60;78.50;;;;;;5053046;28;20033;-72
2021/07/30 00:36:22;;;;;;;7.60;2.20;;;18.50;78.50;;;;;;5053070;28;20027;-72
2021/07/30 00:38:48;;;;;;;10.68;2.67;;;18.50;78.90;;;;;;5053539;28;20029;-72
2021/07/30 00:41:13;;;;;;;6.15;2.00;;;18.50;78.50;;;;;;5053392;28;20039;-71
2021/07/30 00:43:39;;;;;;;5.72;1.90;;;18.50;78.90;;;;;;5053153;28;20362;-72
2021/07/30 00:46:05;;;;;;;11.02;2.42;;;18.50;79.10;;;;;;5052830;28;20477;-72
2021/07/30 00:48:31;;;;;;;9.30;2.30;;;18.40;79.50;;;;;;5052913;28;20037;-72
2021/07/30 00:50:58;;;;;;;7.68;2.25;;;18.40;79.50;;;;;;5053175;28;20025;-71
2021/07/30 00:53:25;;;;;;;9.20;2.22;;;18.30;80.20;;;;;;5051774;28;20102;-72
2021/07/30 00:55:58;;;;;;;6.90;2.00;;;18.30;80.30;;;;;;5052998;28;20425;-73
2021/07/30 00:58:26;;;;;;;7.75;2.90;;;18.30;80.60;;;;;;5052928;28;20314;-72
2021/07/30 01:00:52;;;;;;;6.47;1.83;;;18.30;80.90;;;;;;5051165;28;20458;-72
2021/07/30 01:03:18;;;;;;;6.15;1.98;;;18.30;80.90;;;;;;5052265;28;20136;-71
2021/07/30 01:05:44;;;;;;;11.80;2.50;;;18.20;80.80;;;;;;5051857;28;20021;-74
2021/07/30 01:08:10;;;;;;;8.55;2.38;;;18.20;80.90;;;;;;5052897;28;20063;-71
2021/07/30 01:10:36;;;;;;;7.68;2.17;;;18.20;80.70;;;;;;5052884;28;20061;-72
2021/07/30 01:13:01;;;;;;;6.13;2.13;;;18.20;80.30;;;;;;5052552;28;20451;-72
2021/07/30 01:15:27;;;;;;;7.05;2.03;;;18.20;80.50;;;;;;5052576;28;20037;-73
2021/07/30 01:17:53;;;;;;;8.27;2.55;;;18.20;79.90;;;;;;5052017;28;20017;-73
2021/07/30 01:20:23;;;;;;;11.73;2.92;;;18.20;79.90;;;;;;5052491;28;20112;-71
2021/07/30 01:22:56;;;;;;;12.00;2.83;;;18.10;80.20;;;;;;5052068;28;20375;-72
2021/07/30 01:25:23;;;;;;;7.85;2.00;;;18.10;80.70;;;;;;5052079;28;20108;-73
2021/07/30 01:27:50;;;;;;;7.63;2.17;;;18.10;80.30;;;;;;5052310;28;20047;-72
2021/07/30 01:30:18;;;;;;;9.32;2.85;;;18.00;80.50;;;;;;5052132;28;20029;-72
2021/07/30 01:32:44;;;;;;;6.55;2.15;;;18.00;80.20;;;;;;5052896;28;20021;-72
2021/07/30 01:35:10;;;;;;;6.07;2.20;;;18.00;80.70;;;;;;5047810;28;20029;-73
2021/07/30 01:37:36;;;;;;;5.53;2.50;;;17.90;80.90;;;;;;5032421;28;20036;-74
2021/07/30 01:40:03;;;;;;;11.07;2.65;;;18.00;80.50;;;;;;5032343;28;20120;-72
2021/07/30 01:42:29;;;;;;;7.07;2.78;;;18.00;80.70;;;;;;5032409;28;20527;-72
2021/07/30 01:44:55;;;;;;;13.40;2.42;;;18.00;80.40;;;;;;5032589;28;20121;-73
2021/07/30 01:47:21;;;;;;;10.38;2.50;;;18.00;80.70;;;;;;5032037;28;20036;-72
2021/07/30 01:49:48;;;;;;;7.07;2.53;;;17.90;81.10;;;;;;5031833;28;20435;-73
2021/07/30 01:52:13;;;;;;;12.80;2.85;;;17.80;80.70;;;;;;5031085;28;20052;-71
2021/07/30 01:54:39;;;;;;;7.15;2.50;;;17.80;81.40;;;;;;5032203;28;20026;-71
2021/07/30 01:57:05;;;;;;;10.65;2.45;;;17.80;81.30;;;;;;5032046;28;20561;-72
2021/07/30 01:59:31;;;;;;;5.57;2.55;;;17.80;81.70;;;;;;5031651;28;20052;-71
2021/07/30 02:01:57;;;;;;;5.10;2.33;;;17.80;81.80;;;;;;5031688;28;20022;-71
2021/07/30 02:04:22;;;;;;;9.63;2.60;;;17.70;82.20;;;;;;5031495;28;20048;-72
2021/07/30 02:06:48;;;;;;;7.20;2.50;;;17.70;81.80;;;;;;5031642;28;20030;-71
2021/07/30 02:09:13;;;;;;;8.88;2.55;;;17.70;82.10;;;;;;5031401;28;20087;-71
2021/07/30 02:11:43;;;;;;;6.20;2.22;;;17.70;81.90;;;;;;5031924;28;20017;-71
2021/07/30 02:14:15;;;;;;;13.07;2.80;;;17.70;82.10;;;;;;5031216;28;20121;-71
2021/07/30 02:16:46;;;;;;;7.32;2.53;;;17.60;82.60;;;;;;5031367;28;20422;-72
2021/07/30 02:19:14;;;;;;;6.85;2.90;;;17.50;82.40;;;;;;5030333;28;20091;-72
2021/07/30 02:21:39;;;;;;;;;;;17.60;82.00;;;;;;5031613;28;20052;-72
2021/07/30 02:24:06;;;;;;;10.50;2.80;;;17.60;82.70;;;;;;5031564;28;19909;-72
2021/07/30 02:26:32;;;;;;;4.18;2.30;;;17.60;82.60;;;;;;5031313;28;20137;-71
2021/07/30 02:28:58;;;;;;;12.85;2.80;;;17.50;83.20;;;;;;5031150;28;20528;-71
2021/07/30 02:31:24;;;;;;;16.35;3.00;;;17.50;82.80;;;;;;5031306;28;20033;-72
2021/07/30 02:33:50;;;;;;;11.20;2.60;;;17.40;83.30;;;;;;5031329;28;20113;-72
2021/07/30 02:36:16;;;;;;;10.18;2.95;;;17.40;83.20;;;;;;5031103;28;20029;-73
2021/07/30 02:38:42;;;;;;;6.70;3.08;;;17.40;82.90;;;;;;5031641;28;20025;-73
2021/07/30 02:41:08;;;;;;;10.18;2.78;;;17.50;83.00;;;;;;5029977;28;20091;-73
2021/07/30 02:43:33;;;;;;;9.82;2.70;;;17.40;83.50;;;;;;5030853;28;20032;-73
2021/07/30 02:45:59;;;;;;;7.90;2.35;;;17.40;83.60;;;;;;5031030;28;20041;-72
2021/07/30 02:48:24;;;;;;;7.80;2.88;;;17.40;83.50;;;;;;5030708;28;20455;-73
2021/07/30 02:50:50;;;;;;;6.70;2.78;;;17.40;84.00;;;;;;5030189;28;20061;-72
2021/07/30 02:53:16;;;;;;;8.85;3.60;;;17.40;83.80;;;;;;5031119;28;20038;-73
2021/07/30 02:55:41;;;;;;;6.45;2.65;;;17.40;83.90;;;;;;5031073;28;20029;-73
2021/07/30 02:58:07;;;;;;;9.55;3.05;;;17.40;84.10;;;;;;5030780;28;20321;-73
2021/07/30 03:00:32;;;;;;;9.10;2.83;;;17.40;83.50;;;;;;5030872;28;20083;-72
2021/07/30 03:02:58;;;;;;;7.50;2.90;;;17.40;83.60;;;;;;5031297;28;20032;-73
2021/07/30 03:05:24;;;;;;;9.43;3.13;;;17.40;84.10;;;;;;5031005;28;20116;-71
2021/07/30 03:07:49;;;;;;;15.65;4.22;;;17.40;84.10;;;;;;5030875;28;20026;-72
2021/07/30 03:10:15;;;;;;;9.00;3.17;;;17.30;84.20;;;;;;5029878;28;20034;-70
2021/07/30 03:12:41;;;;;;;7.50;3.47;;;17.30;84.40;;;;;;5029838;28;20522;-72
2021/07/30 03:15:06;;;;;;;9.75;2.67;;;17.30;84.50;;;;;;5031433;28;20082;-72
2021/07/30 03:17:32;;;;;;;8.32;2.78;;;17.30;84.60;;;;;;5030846;28;20041;-72
2021/07/30 03:19:58;;;;;;;8.68;2.97;;;17.20;84.80;;;;;;5030652;28;20074;-72
2021/07/30 03:22:23;;;;;;;7.93;3.00;;;17.20;85.30;;;;;;5030251;28;20425;-73
2021/07/30 03:24:49;;;;;;;10.20;3.20;;;17.20;85.10;;;;;;5031465;28;20668;-72
2021/07/30 03:27:14;;;;;;;7.05;2.40;;;17.20;85.20;;;;;;5034830;28;20029;-72
2021/07/30 03:29:40;;;;;;;7.63;3.00;;;17.20;85.00;;;;;;5035255;28;20025;-72
2021/07/30 03:32:08;;;;;;;13.20;3.25;;;17.20;85.30;;;;;;5033300;28;20048;-73
2021/07/30 03:34:34;;;;;;;;;;;17.20;85.40;;;;;;5034936;28;20030;-73
2021/07/30 03:37:00;;;;;;;11.13;3.10;;;17.20;86.10;;;;;;5034358;28;20315;-73
2021/07/30 03:39:26;;;;;;;11.50;2.83;;;17.10;85.90;;;;;;5034407;28;20234;-72
2021/07/30 03:41:52;;;;;;;8.30;3.20;;;17.10;85.70;;;;;;5034925;28;20033;-72
2021/07/30 03:44:17;;;;;;;8.45;2.60;;;17.10;85.70;;;;;;5034170;28;20026;-73
2021/07/30 03:46:43;;;;;;;11.50;3.25;;;17.10;85.70;;;;;;5034211;28;20677;-72
2021/07/30 03:49:08;;;;;;;11.02;3.38;;;17.10;85.50;;;;;;5034311;28;20747;-73
2021/07/30 03:51:34;;;;;;;7.35;3.28;;;17.10;85.60;;;;;;5034245;28;20021;-73
2021/07/30 03:54:00;;;;;;;7.13;3.00;;;17.10;86.20;;;;;;5033488;28;20018;-72
2021/07/30 03:56:28;;;;;;;15.18;3.30;;;17.00;87.00;;;;;;5033980;28;20029;-72
2021/07/30 03:58:53;;;;;;;9.77;2.75;;;17.00;87.10;;;;;;5033013;28;20032;-71
2021/07/30 04:01:19;;;;;;;6.95;3.00;;;17.00;87.50;;;;;;5033762;28;20108;-72
2021/07/30 04:03:45;;;;;;;6.80;3.03;;;17.00;87.20;;;;;;5033856;28;20040;-72
2021/07/30 04:06:12;;;;;;;10.88;3.33;;;17.00;87.10;;;;;;5033816;28;20057;-72
2021/07/30 04:08:38;;;;;;;14.13;3.65;;;17.00;87.00;;;;;;5034276;28;20021;-71
2021/07/30 04:11:04;;;;;;;11.05;3.10;;;17.00;87.00;;;;;;5033651;28;20115;-72
2021/07/30 04:13:33;;;;;;;6.28;2.33;;;17.00;87.20;;;;;;5033684;28;20450;-72
2021/07/30 04:16:03;;;;;;;8.68;2.92;;;17.00;87.30;;;;;;5032579;28;20033;-71
2021/07/30 04:18:28;;;;;;;8.75;3.15;;;17.00;87.50;;;;;;5033410;28;20400;-72
2021/07/30 04:20:54;;;;;;;7.70;3.22;;;17.00;86.40;;;;;;5033935;28;20025;-72
2021/07/30 04:23:19;;;;;;;6.47;3.17;;;17.00;87.50;;;;;;5033638;28;20504;-72
2021/07/30 04:25:45;;;;;;;12.10;3.17;;;17.00;87.60;;;;;;5033560;28;20104;-72
2021/07/30 04:28:10;;;;;;;11.18;3.17;;;17.00;87.20;;;;;;5033475;28;20136;-71
2021/07/30 04:30:36;;;;;;;9.18;2.97;;;17.00;87.40;;;;;;5033330;28;20041;-70
2021/07/30 04:33:02;;;;;;;9.05;3.30;;;17.00;87.40;;;;;;5032697;28;20033;-72
2021/07/30 04:35:27;;;;;;;7.68;2.88;;;17.00;87.40;;;;;;5033004;28;20029;-73
2021/07/30 04:37:56;;;;;;;8.07;2.85;;;17.00;87.20;;;;;;5032289;28;20032;-71
2021/07/30 04:40:23;;;;;;;11.20;3.42;;;17.10;87.40;;;;;;5033277;28;20104;-73
2021/07/30 04:42:49;;;;;;;6.53;2.78;;;17.00;87.40;;;;;;5033257;28;20033;-72
2021/07/30 04:45:14;;;;;;;11.80;3.25;;;17.00;88.10;;;;;;5032852;28;20052;-72
2021/07/30 04:47:40;;;;;;;5.80;3.30;;;17.00;87.60;;;;;;5033294;28;20021;-73
2021/07/30 04:50:06;;;;;;;10.07;2.90;;;17.10;88.00;;;;;;5033013;28;20087;-72
2021/07/30 04:52:32;;;;;;;9.60;3.05;;;17.10;87.80;;;;;;5032938;28;20558;-73
2021/07/30 04:54:57;;;;;;;8.48;2.72;;;17.10;87.80;;;;;;5032977;28;20108;-72
2021/07/30 04:57:23;;;;;;;7.75;3.35;;;17.10;87.40;;;;;;5032677;28;20045;-71
2021/07/30 04:59:48;;;;;;;12.95;3.10;;;17.10;87.60;;;;;;5033198;28;20017;-71
2021/07/30 05:02:14;;;;;;;8.40;2.83;;;17.20;87.70;;;;;;5032868;28;20040;-73
2021/07/30 05:04:39;;;;;;;10.60;3.13;;;17.10;87.80;;;;;;5032759;28;20340;-72
2021/07/30 05:07:05;;;;;;;8.15;3.13;;;17.10;87.80;;;;;;5032637;28;20431;-72
2021/07/30 05:09:31;;;;;;;13.60;3.67;;;17.20;88.00;;;;;;5032579;28;20511;-71
2021/07/30 05:11:56;;;;;;;8.52;3.08;;;17.20;88.80;;;;;;5032963;28;20013;-72
2021/07/30 05:14:22;;;;;;;10.02;3.25;;;17.20;88.20;;;;;;5032691;28;20141;-72
2021/07/30 05:16:48;;;;;;;10.57;3.03;;;17.20;88.20;;;;;;5032456;28;20112;-71
2021/07/30 05:19:13;;;;;;;7.90;2.70;;;17.20;88.50;;;;;;5032547;28;20247;-72
2021/07/30 05:21:39;;;;;;;12.90;3.72;;;17.20;88.40;;;;;;5032197;28;20038;-72
2021/07/30 05:24:05;;;;;;;13.43;3.38;;;17.30;88.40;;;;;;5032198;28;20055;-72
2021/07/30 05:26:31;;;;;;;12.93;3.13;;;17.30;88.10;;;;;;5032391;28;20483;-72
2021/07/30 05:28:56;;;;;;;11.45;3.25;;;17.40;88.40;;;;;;5032530;28;20333;-72
2021/07/30 05:31:22;;;;;;;9.25;3.13;;;17.40;88.40;;;;;;5031363;28;20040;-71
2021/07/30 05:33:48;;;;;;;10.90;3.35;;;17.40;88.60;;;;;;5032164;28;20033;-71
2021/07/30 05:36:15;;;;;;;8.35;2.88;;;17.50;88.30;;;;;;5031968;28;20048;-73
2021/07/30 05:38:42;;;;;;;11.15;3.88;;;17.50;88.00;;;;;;5032616;28;20034;-73
2021/07/30 05:41:11;;;;;;;10.45;3.10;;;17.50;88.20;;;;;;5032179;28;20091;-72
2021/07/30 05:43:42;;;;;;;7.20;3.25;;;17.60;88.10;;;;;;5031972;28;20064;-73
2021/07/30 05:46:08;;;;;;;14.10;3.50;;;17.60;88.30;;;;;;5031137;28;20041;-73
2021/07/30 05:48:34;;;;;;;14.70;3.40;;;17.60;88.10;;;;;;5031662;28;20057;-72
2021/07/30 05:50:59;;;;;;;13.80;3.90;;;17.70;88.30;;;;;;5032240;28;20068;-73
2021/07/30 05:53:25;;;;;;;13.60;3.50;;;17.70;88.00;;;;;;5031962;28;20053;-72
2021/07/30 05:55:51;;;;;;;7.60;2.78;;;17.70;87.80;;;;;;5031742;28;20044;-72
2021/07/30 05:58:16;;;;;;;8.77;3.47;;;17.80;87.90;;;;;;5031710;28;20120;-72
2021/07/30 06:00:42;;;;;;;9.70;3.30;;;17.80;87.90;;;;;;5031514;28;20084;-71
2021/07/30 06:03:08;;;;;;;9.15;3.20;;;17.80;88.30;;;;;;5031377;28;20017;-73
2021/07/30 06:05:33;;;;;;;12.73;3.05;;;17.80;88.10;;;;;;5031861;28;20030;-72
2021/07/30 06:08:03;;;;;;;11.18;3.40;;;17.90;88.20;;;;;;5031499;28;20447;-72
2021/07/30 06:10:29;;;;;;;9.23;3.10;;;18.00;87.80;;;;;;5031465;28;20098;-73
2021/07/30 06:12:55;;;;;;;10.27;3.72;;;18.10;87.70;;;;;;5031557;28;20049;-72
2021/07/30 06:15:22;;;;;;;13.27;3.88;;;18.10;87.50;;;;;;5030243;28;20116;-72
2021/07/30 06:17:48;;;;;;;9.65;3.13;;;18.20;87.10;;;;;;5031694;28;20345;-71
2021/07/30 06:20:14;;;;;;;7.28;3.65;;;18.20;86.80;;;;;;5031363;28;20041;-73
2021/07/30 06:22:39;;;;;;;10.10;3.50;;;18.30;86.40;;;;;;5031079;28;20124;-72
2021/07/30 06:25:06;;;;;;;11.32;2.85;;;18.40;86.40;;;;;;5031201;28;20115;-72
2021/07/30 06:27:34;;;;;;;12.63;3.47;;;18.50;86.00;;;;;;5031058;28;20026;-72
2021/07/30 06:30:02;;;;;;;9.60;3.28;;;18.50;85.60;;;;;;5030765;28;20415;-73
2021/07/30 06:32:27;;;;;;;6.30;2.78;;;18.60;85.30;;;;;;5031162;28;20030;-73
2021/07/30 06:34:53;;;;;;;8.70;3.10;;;18.60;84.90;;;;;;5031249;28;20033;-72
2021/07/30 06:37:19;;;;;;;15.38;3.30;;;18.70;85.00;;;;;;5030910;28;20033;-73
2021/07/30 06:39:44;;;;;;;11.32;3.08;;;18.80;84.60;;;;;;5030869;28;20070;-71
2021/07/30 06:42:10;;;;;;;16.35;3.47;;;18.80;83.20;;;;;;5030500;28;20041;-71
2021/07/30 06:44:35;;;;;;;13.52;2.80;;;18.80;81.90;;;;;;5030182;28;20033;-71
2021/07/30 06:47:04;;;;;;;14.38;3.88;;;18.90;81.50;;;;;;5030898;28;20060;-73
2021/07/30 06:49:30;;;;;;;13.98;3.35;;;18.90;80.60;;;;;;5029763;28;20112;-72
2021/07/30 06:51:55;;;;;;;11.18;3.53;;;19.00;81.10;;;;;;5031061;28;20368;-72
2021/07/30 06:54:21;;;;;;;10.40;3.13;;;19.00;80.70;;;;;;5030839;28;20051;-72
2021/07/30 06:56:46;;;;;;;8.05;2.65;;;19.10;80.80;;;;;;5031082;28;20437;-72
2021/07/30 06:59:12;;;;;;;12.15;3.75;;;19.20;80.90;;;;;;5030003;28;20511;-72
2021/07/30 07:01:38;;;;;;;10.57;3.00;;;19.20;80.30;;;;;;5030409;28;20029;-73
2021/07/30 07:04:04;;;;;;;7.20;2.80;;;19.30;79.90;;;;;;5029704;28;20029;-73
2021/07/30 07:06:29;;;;;;;7.32;2.70;;;19.30;79.70;;;;;;5029426;28;20038;-73
2021/07/30 07:08:59;;;;;;;9.32;2.90;;;19.40;80.00;;;;;;5031180;28;20514;-72
2021/07/30 07:11:24;;;;;;;9.70;2.97;;;19.50;79.70;;;;;;5030594;28;20034;-71
2021/07/30 07:13:53;;;;;;;12.73;3.28;;;19.60;80.50;;;;;;5030765;28;20041;-71
2021/07/30 07:16:20;;;;;;;10.05;3.10;;;19.70;79.70;;;;;;5029487;28;20037;-72
2021/07/30 07:18:46;;;;;;;11.43;3.03;;;19.80;79.90;;;;;;5029520;28;20043;-72
2021/07/30 07:21:13;;;;;;;11.10;2.70;;;19.90;80.10;;;;;;5030267;28;20363;-71
2021/07/30 07:23:39;;;;;;;11.52;3.33;;;19.90;79.30;;;;;;5030985;28;20430;-71
2021/07/30 07:26:05;;;;;;;11.43;2.85;;;20.00;79.10;;;;;;5030437;28;20037;-71
2021/07/30 07:28:31;;;;;;;11.48;3.20;;;20.10;78.90;;;;;;5030569;28;20051;-72
2021/07/30 07:30:56;;;;;;;11.10;2.72;;;20.20;78.80;;;;;;5030362;28;20121;-70
2021/07/30 07:33:22;;;;;;;9.30;2.60;;;20.40;78.60;;;;;;5030095;28;20049;-71
2021/07/30 07:35:48;;;;;;;11.20;3.03;;;20.40;78.10;;;;;;5030917;28;20438;-70
2021/07/30 07:38:13;;;;;;;11.05;2.92;;;20.40;78.00;;;;;;5030776;28;20076;-72
2021/07/30 07:40:39;;;;;;;9.05;2.83;;;20.60;77.50;;;;;;5030273;28;20680;-73
2021/07/30 07:43:04;;;;;;;11.82;2.75;;;20.60;77.10;;;;;;5030337;28;20107;-72
2021/07/30 07:45:30;;;;;;;12.55;3.33;;;20.70;76.60;;;;;;5030312;28;20047;-69
2021/07/30 07:47:56;;;;;;;13.55;2.97;;;20.70;76.40;;;;;;5031143;28;20462;-70
2021/07/30 07:50:22;;;;;;;16.83;4.43;;;20.60;76.20;;;;;;5030306;28;20036;-70
2021/07/30 07:52:47;;;;;;;10.45;2.78;;;20.70;76.40;;;;;;5030373;28;20562;-71
2021/07/30 07:55:13;;;;;;;7.47;2.88;;;20.80;76.40;;;;;;5030467;28;20033;-71
2021/07/30 07:57:43;;;;;;;8.63;2.88;;;21.00;75.80;;;;;;5030197;28;20037;-69
2021/07/30 08:00:10;;;;;;;11.93;3.28;;;21.10;75.70;;;;;;5028988;28;20117;-71
2021/07/30 08:02:35;;;;;;;9.40;3.25;;;21.10;74.90;;;;;;5030415;28;20028;-72
2021/07/30 08:05:01;;;;;;;11.57;2.60;;;21.30;75.00;;;;;;5030336;28;20041;-71
2021/07/30 08:07:26;;;;;;;6.53;3.00;;;21.40;74.90;;;;;;5028999;28;20026;-70
2021/07/30 08:09:52;;;;;;;10.00;2.90;;;21.50;74.40;;;;;;5030017;28;20044;-72
2021/07/30 08:12:18;;;;;;;10.10;2.90;;;21.60;74.10;;;;;;5032741;28;20031;-71
2021/07/30 08:14:44;;;;;;;11.60;3.53;;;21.60;73.50;;;;;;5034064;28;20033;-72
2021/07/30 08:17:10;;;;;;;5.85;2.45;;;21.70;73.90;;;;;;5033950;28;20377;-71
2021/07/30 08:19:36;;;;;;;9.20;2.78;;;21.80;73.50;;;;;;5033607;28;20044;-70
2021/07/30 08:22:04;;;;;;;5.07;2.65;;;21.90;73.40;;;;;;5032146;28;20128;-73
2021/07/30 08:24:31;;;;;;;11.90;3.97;;;22.40;73.40;;;;;;5033533;28;20026;-73
2021/07/30 08:26:56;;;;;;;8.27;2.85;;;22.80;72.40;;;;;;5034043;28;20030;-72
2021/07/30 08:29:22;;;;;;;14.90;4.00;;;23.20;72.00;;;;;;5033344;28;20676;-72
2021/07/30 08:31:47;;;;;;;9.10;2.70;;;23.70;70.00;;;;;;5033454;28;20124;-71
2021/07/30 08:34:14;;;;;;;9.60;2.58;;;24.40;68.90;;;;;;5032246;28;20040;-74
2021/07/30 08:36:41;;;;;;;7.78;2.65;;;24.90;69.20;;;;;;5033418;28;20029;-72
2021/07/30 08:39:06;;;;;;;11.25;3.13;;;25.70;67.30;;;;;;5032664;28;20094;-73
2021/07/30 08:41:34;;;;;;;30.15;14.02;;;26.50;65.50;;;;;;5033323;28;20109;-73
2021/07/30 08:43:59;;;;;;;10.20;2.92;;;26.50;63.50;;;;;;5033126;28;20056;-72
2021/07/30 08:46:27;;;;;;;8.35;2.67;;;27.40;62.90;;;;;;5033113;28;20487;-73
2021/07/30 08:48:54;;;;;;;7.63;2.45;;;27.70;61.30;;;;;;5033267;28;20042;-71
2021/07/30 08:51:21;;;;;;;7.78;2.75;;;28.50;59.00;;;;;;5031697;28;20045;-72
2021/07/30 08:53:47;;;;;;;7.50;2.90;;;29.40;60.20;;;;;;5033270;28;20033;-73
2021/07/30 08:56:15;;;;;;;9.88;2.92;;;30.00;57.10;;;;;;5032959;28;20036;-72
2021/07/30 08:58:41;;;;;;;7.97;2.42;;;30.20;55.20;;;;;;5032896;28;20025;-72
2021/07/30 09:01:08;;;;;;;8.35;3.00;;;29.80;55.10;;;;;;5032903;28;20034;-73
2021/07/30 09:03:37;;;;;;;7.65;2.63;;;29.40;55.30;;;;;;5033055;28;20033;-74
2021/07/30 09:06:29;;;;;;;11.10;2.78;;;29.20;55.30;;;;;;5033178;28;20057;-72
2021/07/30 09:09:01;;;;;;;7.55;2.85;;;28.20;55.90;;;;;;5012622;28;20030;-73
2021/07/30 09:11:28;;;;;;;6.43;2.60;;;28.30;56.70;;;;;;5031564;28;20061;-74
2021/07/30 09:13:55;;;;;;;8.70;2.83;;;28.80;56.20;;;;;;5032813;28;20036;-74
2021/07/30 09:16:21;;;;;;;11.18;2.67;;;29.40;55.20;;;;;;5032453;28;20026;-73
2021/07/30 09:18:47;;;;;;;8.10;2.03;;;29.50;54.20;;;;;;5032309;28;20029;-72
2021/07/30 09:21:21;;;;;;;11.30;3.03;;;29.50;54.40;;;;;;5032235;28;20125;-72
2021/07/30 09:23:59;;;;;;;14.13;2.42;;;29.30;53.50;;;;;;5030989;28;20033;-73
2021/07/30 09:26:32;;;;;;;;;;;29.50;54.80;;;;;;5032956;28;20129;-73
2021/07/30 09:29:01;;;;;;;9.60;2.58;;;29.20;54.30;;;;;;5032297;28;19913;-72
2021/07/30 09:31:39;;;;;;;7.65;2.70;;;30.00;53.80;;;;;;5032298;28;20036;-73
2021/07/30 09:34:15;;;;;;;5.47;1.88;;;29.70;52.90;;;;;;5032083;28;20095;-73
2021/07/30 09:36:42;;;;;;;10.90;2.53;;;29.90;53.30;;;;;;5032214;28;20044;-72
2021/07/30 09:39:07;;;;;;;8.07;2.95;;;30.10;51.70;;;;;;5032750;28;20060;-73
2021/07/30 09:41:33;;;;;;;8.75;2.25;;;29.70;52.70;;;;;;5032499;28;20106;-72
2021/07/30 09:44:07;;;;;;;9.82;2.80;;;29.40;53.10;;;;;;5031858;28;20032;-72
2021/07/30 09:46:33;;;;;;;9.07;2.15;;;29.90;52.30;;;;;;5031912;28;20033;-72
2021/07/30 09:48:59;;;;;;;6.22;2.67;;;29.90;50.90;;;;;;5030833;28;20044;-73
2021/07/30 09:51:25;;;;;;;8.13;2.25;;;29.60;51.00;;;;;;5031760;28;20033;-73
2021/07/30 09:53:51;;;;;;;9.85;2.53;;;29.20;51.80;;;;;;5031357;28;20025;-72
2021/07/30 09:56:21;;;;;;;12.60;2.40;;;29.10;51.90;;;;;;5031714;28;20501;-72
2021/07/30 09:58:49;;;;;;;6.75;2.00;;;29.20;52.50;;;;;;5031680;28;20026;-72
2021/07/30 10:01:18;;;;;;;13.65;8.07;;;29.20;52.00;;;;;;5031529;28;20108;-72
2021/07/30 10:03:46;;;;;;;9.55;2.67;;;28.80;51.70;;;;;;5031673;28;20026;-73
2021/07/30 10:06:13;;;;;;;9.63;3.28;;;28.40;52.60;;;;;;5031180;28;20407;-73
2021/07/30 10:08:42;;;;;;;8.43;2.40;;;28.00;53.50;;;;;;5031939;28;20471;-72
2021/07/30 10:11:12;;;;;;;4.95;2.30;;;27.60;54.10;;;;;;5031211;28;20120;-72
2021/07/30 10:13:50;;;;;;;9.75;2.38;;;27.60;54.10;;;;;;5031213;28;20099;-73
2021/07/30 10:16:17;;;;;;;5.72;2.42;;;27.10;54.40;;;;;;5031353;28;20033;-72
2021/07/30 10:18:44;;;;;;;5.75;1.80;;;27.00;54.60;;;;;;5031699;28;20474;-72
2021/07/30 10:21:16;;;;;;;9.97;2.13;;;27.00;54.60;;;;;;5031089;28;20083;-73
2021/07/30 10:23:45;;;;;;;7.20;2.22;;;27.10;54.80;;;;;;5031797;28;20258;-72
2021/07/30 10:26:12;;;;;;;9.18;3.45;;;27.10;54.70;;;;;;5031343;28;20416;-72
2021/07/30 10:28:38;;;;;;;6.07;1.92;;;27.00;55.10;;;;;;5031267;28;20029;-72
2021/07/30 10:31:05;;;;;;;10.93;3.25;;;26.60;55.00;;;;;;5030888;28;20099;-72
2021/07/30 10:33:31;;;;;;;7.32;3.58;;;26.60;55.60;;;;;;5029770;28;20040;-72
2021/07/30 10:36:29;;;;;;;8.45;2.65;;;26.60;55.60;;;;;;5031369;28;20026;-71
2021/07/30 10:39:15;;;;;;;5.35;2.22;;;26.30;56.00;;;;;;5028935;28;20041;-73
2021/07/30 10:42:04;;;;;;;12.18;2.65;;;26.50;56.40;;;;;;5011520;28;20057;-73
2021/07/30 10:44:29;;;;;;;7.45;2.00;;;26.50;56.10;;;;;;5026230;28;20121;-72
2021/07/30 10:47:27;;;;;;;10.05;2.03;;;26.40;56.50;;;;;;5030721;28;20033;-72
2021/07/30 10:49:53;;;;;;;8.60;1.90;;;26.20;56.30;;;;;;5009678;28;20396;-71
2021/07/30 10:52:27;;;;;;;6.35;2.20;;;26.10;56.70;;;;;;5019596;28;20025;-73
2021/07/30 10:54:53;;;;;;;5.60;2.20;;;26.10;56.90;;;;;;5030850;28;20043;-71
2021/07/30 10:57:48;;;;;;;4.47;1.77;;;26.00;56.60;;;;;;5030593;28;20105;-72
2021/07/30 11:00:14;;;;;;;4.70;1.63;;;26.00;56.70;;;;;;5030932;28;20022;-72
2021/07/30 11:02:59;;;;;;;4.13;1.67;;;26.00;56.30;;;;;;5030950;28;20362;-72
2021/07/30 11:05:24;;;;;;;5.05;1.90;;;26.20;56.50;;;;;;5030512;28;20494;-72
2021/07/30 11:07:59;;;;;;;4.07;1.83;;;26.30;56.60;;;;;;5030520;28;20048;-71
2021/07/30 11:10:24;;;;;;;5.75;1.92;;;26.20;56.30;;;;;;5030567;28;20135;-71
2021/07/30 11:12:53;;;;;;;6.18;1.73;;;26.30;56.50;;;;;;5030919;28;20232;-71
2021/07/30 11:15:19;;;;;;;6.53;1.92;;;26.30;56.40;;;;;;5030701;28;20044;-71
2021/07/30 11:17:50;;;;;;;5.60;1.80;;;26.10;56.80;;;;;;5031059;28;20029;-72
2021/07/30 11:20:16;;;;;;;5.70;1.55;;;26.20;56.60;;;;;;5030253;28;20048;-71
2021/07/30 11:22:41;;;;;;;4.70;1.58;;;26.00;56.60;;;;;;5030337;28;20061;-71
2021/07/30 11:25:12;;;;;;;8.73;2.03;;;26.10;56.40;;;;;;5030418;28;20367;-71
2021/07/30 11:27:38;;;;;;;6.03;1.85;;;26.00;56.50;;;;;;5030679;28;20324;-73
2021/07/30 11:30:05;;;;;;;5.25;1.67;;;26.10;56.40;;;;;;5030968;28;20022;-72
2021/07/30 11:32:32;;;;;;;3.50;1.63;;;26.00;56.30;;;;;;5030343;28;20095;-72
2021/07/30 11:35:08;;;;;;;7.03;1.58;;;26.10;56.60;;;;;;5030529;28;20068;-71
2021/07/30 11:37:34;;;;;;;4.88;1.60;;;26.10;56.40;;;;;;5030452;28;20519;-72
2021/07/30 11:40:01;;;;;;;12.27;2.10;;;26.40;57.00;;;;;;5030543;28;20029;-73
2021/07/30 11:42:30;;;;;;;6.40;1.53;;;26.50;56.70;;;;;;5030520;28;20434;-72
2021/07/30 11:45:00;;;;;;;5.25;2.03;;;26.70;56.30;;;;;;5029636;28;20033;-72
2021/07/30 11:47:30;;;;;;;7.05;1.70;;;26.40;55.80;;;;;;5033701;28;20451;-72
2021/07/30 11:50:10;;;;;;;9.93;1.98;;;26.50;55.90;;;;;;5034105;28;20175;-71
2021/07/30 11:52:37;;;;;;;9.75;1.77;;;26.50;55.80;;;;;;5033926;28;20033;-72
2021/07/30 11:55:22;;;;;;;3.75;1.85;;;26.60;56.60;;;;;;5033922;28;20041;-72
2021/07/30 11:57:52;;;;;;;4.38;1.60;;;26.60;55.20;;;;;;5033918;28;20030;-72
2021/07/30 12:00:28;;;;;;;4.75;2.00;;;26.70;55.20;;;;;;5033863;28;20209;-73
2021/07/30 12:02:55;;;;;;;7.68;1.73;;;26.70;56.10;;;;;;5033173;28;20192;-70
2021/07/30 12:05:33;;;;;;;3.47;1.63;;;26.80;55.90;;;;;;5033768;28;20111;-72
2021/07/30 12:07:59;;;;;;;6.57;2.10;;;26.80;55.00;;;;;;5032945;28;20033;-73
2021/07/30 12:10:26;;;;;;;7.88;2.10;;;26.80;55.20;;;;;;5033874;28;20034;-73
2021/07/30 12:12:53;;;;;;;9.35;2.35;;;26.70;55.40;;;;;;5032392;28;20029;-73
2021/07/30 12:15:25;;;;;;;4.35;1.42;;;26.80;55.60;;;;;;5033500;28;20057;-72
2021/07/30 12:17:58;;;;;;;3.72;1.58;;;26.80;55.50;;;;;;5033690;28;20360;-72
2021/07/30 12:20:30;;;;;;;8.52;1.70;;;26.70;55.60;;;;;;5033572;28;20056;-73
2021/07/30 12:23:02;;;;;;;4.72;1.70;;;26.80;56.00;;;;;;5033398;28;20060;-72
2021/07/30 12:25:36;;;;;;;4.93;1.55;;;26.80;55.50;;;;;;5033455;28;20029;-71
2021/07/30 12:28:11;;;;;;;5.18;1.38;;;27.00;55.80;;;;;;5033431;28;20103;-72
2021/07/30 12:30:39;;;;;;;5.65;2.10;;;27.00;55.80;;;;;;5032605;28;20395;-73
2021/07/30 12:33:23;;;;;;;6.00;1.75;;;26.80;55.60;;;;;;5033653;28;20035;-72
2021/07/30 12:36:00;;;;;;;9.25;1.65;;;26.70;55.70;;;;;;5033262;28;20414;-73
2021/07/30 12:38:25;;;;;;;4.78;1.50;;;26.80;56.00;;;;;;5033655;28;20442;-72
2021/07/30 12:40:51;;;;;;;7.40;2.10;;;26.90;55.80;;;;;;5033214;28;20069;-72
2021/07/30 12:43:20;;;;;;;5.22;1.92;;;27.00;55.70;;;;;;5033218;28;20030;-72
2021/07/30 12:45:49;;;;;;;6.80;1.73;;;26.90;55.40;;;;;;5033011;28;20037;-72